sensor_id;sensor_type;location;lat;lon;timestamp;temperature;humidity
43842;DHT22;29495;49.970;20.842;2022-12-07T00:00:20;2.90;99.90
43842;DHT22;29495;49.970;20.842;2022-12-07T00:02:49;2.90;99.90
43842;DHT22;29495;49.970;20.842;2022-12-07T00:05:18;2.90;99.90
43842;DHT22;29495;49.970;20.842;2022-12-07T00:08:09;2.80;99.90
43842;DHT22;29495;49.970;20.842;2022-12-07T00:14:14;2.80;99.90
43842;DHT22;29495;49.970;20.842;2022-12-07T00:16:57;2.90;99.90
43842;DHT22;29495;49.970;20.842;2022-12-07T00:19:23;2.80;99.90
43842;DHT22;29495;49.970;20.842;2022-12-07T00:21:49;2.90;99.90
43842;DHT22;29495;49.970;20.842;2022-12-07T00:24:15;2.80;99.90
43842;DHT22;29495;49.970;20.842;2022-12-07T00:26:42;2.90;99.90
43842;DHT22;29495;49.970;20.842;2022-12-07T00:29:22;2.90;99.90
43842;DHT22;29495;49.970;20.842;2022-12-07T00:31:50;2.90;99.90
43842;DHT22;29495;49.970;20.842;2022-12-07T00:37:58;2.90;99.90
43842;DHT22;29495;49.970;20.842;2022-12-07T00:40:24;2.90;99.90
43842;DHT22;29495;49.970;20.842;2022-12-07T00:42:50;2.90;99.90
43842;DHT22;29495;49.970;20.842;2022-12-07T00:45:22;2.90;99.90
43842;DHT22;29495;49.970;20.842;2022-12-07T00:47:48;2.90;99.90
43842;DHT22;29495;49.970;20.842;2022-12-07T00:50:17;2.80;99.90
43842;DHT22;29495;49.970;20.842;2022-12-07T00:52:46;2.80;99.90
43842;DHT22;29495;49.970;20.842;2022-12-07T00:55:27;2.90;99.90
43842;DHT22;29495;49.970;20.842;2022-12-07T00:57:53;3.00;99.90
43842;DHT22;29495;49.970;20.842;2022-12-07T01:00:19;3.00;99.90
43842;DHT22;29495;49.970;20.842;2022-12-07T01:02:45;3.00;99.90
43842;DHT22;29495;49.970;20.842;2022-12-07T01:05:14;2.90;99.90
43842;DHT22;29495;49.970;20.842;2022-12-07T01:07:57;3.00;99.90
43842;DHT22;29495;49.970;20.842;2022-12-07T01:10:23;3.10;99.90
43842;DHT22;29495;49.970;20.842;2022-12-07T01:12:49;3.20;99.90
43842;DHT22;29495;49.970;20.842;2022-12-07T01:15:15;3.20;99.90
43842;DHT22;29495;49.970;20.842;2022-12-07T01:17:41;3.20;99.90
43842;DHT22;29495;49.970;20.842;2022-12-07T01:20:16;3.20;99.90
43842;DHT22;29495;49.970;20.842;2022-12-07T01:23:16;3.30;99.90
43842;DHT22;29495;49.970;20.842;2022-12-07T01:26:14;3.20;99.90
43842;DHT22;29495;49.970;20.842;2022-12-07T01:28:44;3.20;99.90
43842;DHT22;29495;49.970;20.842;2022-12-07T01:35:06;3.20;99.90
43842;DHT22;29495;49.970;20.842;2022-12-07T01:37:41;3.20;99.90
43842;DHT22;29495;49.970;20.842;2022-12-07T01:40:07;3.20;99.90
43842;DHT22;29495;49.970;20.842;2022-12-07T01:42:34;3.30;99.90
43842;DHT22;29495;49.970;20.842;2022-12-07T01:47:51;3.30;99.90
43842;DHT22;29495;49.970;20.842;2022-12-07T01:50:24;3.30;99.90
43842;DHT22;29495;49.970;20.842;2022-12-07T01:52:53;3.30;99.90
43842;DHT22;29495;49.970;20.842;2022-12-07T01:55:20;3.30;99.90
43842;DHT22;29495;49.970;20.842;2022-12-07T01:57:52;3.30;99.90
43842;DHT22;29495;49.970;20.842;2022-12-07T02:00:19;3.30;99.90
43842;DHT22;29495;49.970;20.842;2022-12-07T02:02:53;3.40;99.90
43842;DHT22;29495;49.970;20.842;2022-12-07T02:05:19;3.40;99.90
43842;DHT22;29495;49.970;20.842;2022-12-07T02:07:47;3.50;99.90
43842;DHT22;29495;49.970;20.842;2022-12-07T02:10:23;3.50;99.90
43842;DHT22;29495;49.970;20.842;2022-12-07T02:12:54;3.50;99.90
43842;DHT22;29495;49.970;20.842;2022-12-07T02:15:23;3.50;99.90
43842;DHT22;29495;49.970;20.842;2022-12-07T02:18:09;3.50;99.90
43842;DHT22;29495;49.970;20.842;2022-12-07T02:23:41;3.50;99.90
43842;DHT22;29495;49.970;20.842;2022-12-07T02:29:09;3.60;99.90
43842;DHT22;29495;49.970;20.842;2022-12-07T02:31:38;3.60;99.90
43842;DHT22;29495;49.970;20.842;2022-12-07T02:37:01;3.60;99.90
43842;DHT22;29495;49.970;20.842;2022-12-07T02:40:34;3.60;99.90
43842;DHT22;29495;49.970;20.842;2022-12-07T02:44:19;3.60;99.90
43842;DHT22;29495;49.970;20.842;2022-12-07T02:47:01;3.60;99.90
43842;DHT22;29495;49.970;20.842;2022-12-07T02:49:32;3.70;99.90
43842;DHT22;29495;49.970;20.842;2022-12-07T02:51:58;3.60;99.90
43842;DHT22;29495;49.970;20.842;2022-12-07T02:54:24;3.60;99.90
43842;DHT22;29495;49.970;20.842;2022-12-07T02:59:47;3.70;99.90
43842;DHT22;29495;49.970;20.842;2022-12-07T03:08:23;3.50;99.90
43842;DHT22;29495;49.970;20.842;2022-12-07T03:11:22;3.60;99.90
43842;DHT22;29495;49.970;20.842;2022-12-07T03:14:25;3.60;99.90
43842;DHT22;29495;49.970;20.842;2022-12-07T03:17:30;3.50;99.90
43842;DHT22;29495;49.970;20.842;2022-12-07T03:20:21;3.60;99.90
43842;DHT22;29495;49.970;20.842;2022-12-07T03:22:47;3.60;99.90
43842;DHT22;29495;49.970;20.842;2022-12-07T03:25:15;3.60;99.90
43842;DHT22;29495;49.970;20.842;2022-12-07T03:30:24;3.40;99.90
43842;DHT22;29495;49.970;20.842;2022-12-07T03:33:07;3.40;99.90
43842;DHT22;29495;49.970;20.842;2022-12-07T03:35:45;3.40;99.90
43842;DHT22;29495;49.970;20.842;2022-12-07T03:41:23;3.60;99.90
43842;DHT22;29495;49.970;20.842;2022-12-07T03:44:09;3.50;99.90
43842;DHT22;29495;49.970;20.842;2022-12-07T03:46:43;3.40;99.90
43842;DHT22;29495;49.970;20.842;2022-12-07T03:54:49;3.60;99.90
43842;DHT22;29495;49.970;20.842;2022-12-07T03:57:18;3.60;99.90
43842;DHT22;29495;49.970;20.842;2022-12-07T03:59:46;3.60;99.90
43842;DHT22;29495;49.970;20.842;2022-12-07T04:02:32;3.60;99.90
43842;DHT22;29495;49.970;20.842;2022-12-07T04:05:06;3.60;99.90
43842;DHT22;29495;49.970;20.842;2022-12-07T04:07:41;3.60;99.90
43842;DHT22;29495;49.970;20.842;2022-12-07T04:10:07;3.70;99.90
43842;DHT22;29495;49.970;20.842;2022-12-07T04:12:34;3.60;99.90
43842;DHT22;29495;49.970;20.842;2022-12-07T04:15:00;3.70;99.90
43842;DHT22;29495;49.970;20.842;2022-12-07T04:17:26;3.60;99.90
43842;DHT22;29495;49.970;20.842;2022-12-07T04:19:52;3.60;99.90
43842;DHT22;29495;49.970;20.842;2022-12-07T04:22:18;3.60;99.90
43842;DHT22;29495;49.970;20.842;2022-12-07T04:24:44;3.50;99.90
43842;DHT22;29495;49.970;20.842;2022-12-07T04:27:10;3.50;99.90
43842;DHT22;29495;49.970;20.842;2022-12-07T04:29:36;3.50;99.90
43842;DHT22;29495;49.970;20.842;2022-12-07T04:32:02;3.50;99.90
43842;DHT22;29495;49.970;20.842;2022-12-07T04:34:28;3.40;99.90
43842;DHT22;29495;49.970;20.842;2022-12-07T04:36:54;3.50;99.90
43842;DHT22;29495;49.970;20.842;2022-12-07T04:39:25;3.60;99.90
43842;DHT22;29495;49.970;20.842;2022-12-07T04:41:53;3.60;99.90
43842;DHT22;29495;49.970;20.842;2022-12-07T04:44:20;3.60;99.90
43842;DHT22;29495;49.970;20.842;2022-12-07T04:47:14;3.60;99.90
43842;DHT22;29495;49.970;20.842;2022-12-07T04:49:40;3.70;99.90
43842;DHT22;29495;49.970;20.842;2022-12-07T04:52:08;3.70;99.90
43842;DHT22;29495;49.970;20.842;2022-12-07T04:54:35;3.60;99.90
43842;DHT22;29495;49.970;20.842;2022-12-07T04:57:01;3.60;99.90
43842;DHT22;29495;49.970;20.842;2022-12-07T04:59:27;3.60;99.90
43842;DHT22;29495;49.970;20.842;2022-12-07T05:01:55;3.60;99.90
43842;DHT22;29495;49.970;20.842;2022-12-07T05:04:24;3.60;99.90
43842;DHT22;29495;49.970;20.842;2022-12-07T05:06:52;3.70;99.90
43842;DHT22;29495;49.970;20.842;2022-12-07T05:09:18;3.70;99.90
43842;DHT22;29495;49.970;20.842;2022-12-07T05:11:44;3.60;99.90
43842;DHT22;29495;49.970;20.842;2022-12-07T05:16:39;3.70;99.90
43842;DHT22;29495;49.970;20.842;2022-12-07T05:19:05;3.70;99.90
43842;DHT22;29495;49.970;20.842;2022-12-07T05:21:32;3.70;99.90
43842;DHT22;29495;49.970;20.842;2022-12-07T05:23:58;3.60;99.90
43842;DHT22;29495;49.970;20.842;2022-12-07T05:26:40;3.60;99.90
43842;DHT22;29495;49.970;20.842;2022-12-07T05:29:06;3.60;99.90
43842;DHT22;29495;49.970;20.842;2022-12-07T05:31:55;3.60;99.90
43842;DHT22;29495;49.970;20.842;2022-12-07T05:34:21;3.60;99.90
43842;DHT22;29495;49.970;20.842;2022-12-07T05:36:47;3.60;99.90
43842;DHT22;29495;49.970;20.842;2022-12-07T05:39:13;3.60;99.90
43842;DHT22;29495;49.970;20.842;2022-12-07T05:41:39;3.50;99.90
43842;DHT22;29495;49.970;20.842;2022-12-07T05:44:24;3.50;99.90
43842;DHT22;29495;49.970;20.842;2022-12-07T05:47:16;3.50;99.90
43842;DHT22;29495;49.970;20.842;2022-12-07T05:49:53;3.50;99.90
43842;DHT22;29495;49.970;20.842;2022-12-07T05:52:19;3.40;99.90
43842;DHT22;29495;49.970;20.842;2022-12-07T05:54:45;3.40;99.90
43842;DHT22;29495;49.970;20.842;2022-12-07T05:57:11;3.40;99.90
43842;DHT22;29495;49.970;20.842;2022-12-07T05:59:37;3.40;99.90
43842;DHT22;29495;49.970;20.842;2022-12-07T06:02:09;3.40;99.90
43842;DHT22;29495;49.970;20.842;2022-12-07T06:04:40;3.30;99.90
43842;DHT22;29495;49.970;20.842;2022-12-07T06:07:14;3.30;99.90
43842;DHT22;29495;49.970;20.842;2022-12-07T06:09:41;3.30;99.90
43842;DHT22;29495;49.970;20.842;2022-12-07T06:12:10;3.30;99.90
43842;DHT22;29495;49.970;20.842;2022-12-07T06:14:55;3.20;99.90
43842;DHT22;29495;49.970;20.842;2022-12-07T06:17:21;3.20;99.90
43842;DHT22;29495;49.970;20.842;2022-12-07T06:19:47;3.20;99.90
43842;DHT22;29495;49.970;20.842;2022-12-07T06:22:31;3.20;99.90
43842;DHT22;29495;49.970;20.842;2022-12-07T06:25:09;3.20;99.90
43842;DHT22;29495;49.970;20.842;2022-12-07T06:27:35;3.20;99.90
43842;DHT22;29495;49.970;20.842;2022-12-07T06:30:02;3.20;99.90
43842;DHT22;29495;49.970;20.842;2022-12-07T06:32:36;3.20;99.90
43842;DHT22;29495;49.970;20.842;2022-12-07T06:35:21;3.20;99.90
43842;DHT22;29495;49.970;20.842;2022-12-07T06:38:14;3.30;99.90
43842;DHT22;29495;49.970;20.842;2022-12-07T06:41:04;3.20;99.90
43842;DHT22;29495;49.970;20.842;2022-12-07T06:43:30;3.20;99.90
43842;DHT22;29495;49.970;20.842;2022-12-07T06:46:30;3.10;99.90
43842;DHT22;29495;49.970;20.842;2022-12-07T06:49:01;3.20;99.90
43842;DHT22;29495;49.970;20.842;2022-12-07T06:51:31;3.10;99.90
43842;DHT22;29495;49.970;20.842;2022-12-07T06:53:57;3.20;99.90
43842;DHT22;29495;49.970;20.842;2022-12-07T06:56:24;3.10;99.90
43842;DHT22;29495;49.970;20.842;2022-12-07T06:59:15;3.10;99.90
43842;DHT22;29495;49.970;20.842;2022-12-07T07:01:41;3.00;99.90
43842;DHT22;29495;49.970;20.842;2022-12-07T07:07:17;3.00;99.90
43842;DHT22;29495;49.970;20.842;2022-12-07T07:09:43;3.10;99.90
43842;DHT22;29495;49.970;20.842;2022-12-07T07:12:09;3.00;99.90
43842;DHT22;29495;49.970;20.842;2022-12-07T07:14:35;3.00;99.90
43842;DHT22;29495;49.970;20.842;2022-12-07T07:17:05;3.00;99.90
43842;DHT22;29495;49.970;20.842;2022-12-07T07:22:50;3.00;99.90
43842;DHT22;29495;49.970;20.842;2022-12-07T07:25:16;3.00;99.90
43842;DHT22;29495;49.970;20.842;2022-12-07T07:27:42;3.00;99.90
43842;DHT22;29495;49.970;20.842;2022-12-07T07:30:09;3.10;99.90
43842;DHT22;29495;49.970;20.842;2022-12-07T07:32:35;3.10;99.90
43842;DHT22;29495;49.970;20.842;2022-12-07T07:35:13;3.10;99.90
43842;DHT22;29495;49.970;20.842;2022-12-07T07:38:04;3.10;99.90
43842;DHT22;29495;49.970;20.842;2022-12-07T07:40:30;3.10;99.90
43842;DHT22;29495;49.970;20.842;2022-12-07T07:42:57;3.10;99.90
43842;DHT22;29495;49.970;20.842;2022-12-07T07:45:24;3.20;99.90
43842;DHT22;29495;49.970;20.842;2022-12-07T07:47:51;3.10;99.90
43842;DHT22;29495;49.970;20.842;2022-12-07T07:50:18;3.10;99.90
43842;DHT22;29495;49.970;20.842;2022-12-07T07:53:12;3.10;99.90
43842;DHT22;29495;49.970;20.842;2022-12-07T07:55:52;3.10;99.90
43842;DHT22;29495;49.970;20.842;2022-12-07T07:58:19;3.10;99.90
43842;DHT22;29495;49.970;20.842;2022-12-07T08:00:45;3.00;99.90
43842;DHT22;29495;49.970;20.842;2022-12-07T08:03:11;3.00;99.90
43842;DHT22;29495;49.970;20.842;2022-12-07T08:05:38;2.90;99.90
43842;DHT22;29495;49.970;20.842;2022-12-07T08:08:04;3.00;99.90
43842;DHT22;29495;49.970;20.842;2022-12-07T08:10:55;2.90;99.90
43842;DHT22;29495;49.970;20.842;2022-12-07T08:13:21;2.90;99.90
43842;DHT22;29495;49.970;20.842;2022-12-07T08:15:48;2.80;99.90
43842;DHT22;29495;49.970;20.842;2022-12-07T08:18:20;2.90;99.90
43842;DHT22;29495;49.970;20.842;2022-12-07T08:20:46;2.80;99.90
43842;DHT22;29495;49.970;20.842;2022-12-07T08:23:14;2.80;99.90
43842;DHT22;29495;49.970;20.842;2022-12-07T08:25:40;2.70;99.90
43842;DHT22;29495;49.970;20.842;2022-12-07T08:28:06;2.80;99.90
43842;DHT22;29495;49.970;20.842;2022-12-07T08:34:26;2.70;99.90
43842;DHT22;29495;49.970;20.842;2022-12-07T08:36:52;2.60;99.90
43842;DHT22;29495;49.970;20.842;2022-12-07T08:39:18;2.70;99.90
43842;DHT22;29495;49.970;20.842;2022-12-07T08:41:44;2.70;99.90
43842;DHT22;29495;49.970;20.842;2022-12-07T08:44:35;2.70;99.90
43842;DHT22;29495;49.970;20.842;2022-12-07T08:47:06;2.80;99.90
43842;DHT22;29495;49.970;20.842;2022-12-07T08:49:46;2.70;99.90
43842;DHT22;29495;49.970;20.842;2022-12-07T08:52:13;2.70;99.90
43842;DHT22;29495;49.970;20.842;2022-12-07T08:54:40;2.80;99.90
43842;DHT22;29495;49.970;20.842;2022-12-07T08:57:15;2.90;99.90
43842;DHT22;29495;49.970;20.842;2022-12-07T08:59:51;2.90;99.90
43842;DHT22;29495;49.970;20.842;2022-12-07T09:02:17;2.80;99.90
43842;DHT22;29495;49.970;20.842;2022-12-07T09:04:44;2.80;99.90
43842;DHT22;29495;49.970;20.842;2022-12-07T09:07:10;3.00;99.90
43842;DHT22;29495;49.970;20.842;2022-12-07T09:09:44;3.00;99.90
43842;DHT22;29495;49.970;20.842;2022-12-07T09:12:27;3.10;99.90
43842;DHT22;29495;49.970;20.842;2022-12-07T09:15:17;3.10;99.90
43842;DHT22;29495;49.970;20.842;2022-12-07T09:18:09;3.20;99.90
43842;DHT22;29495;49.970;20.842;2022-12-07T09:20:34;3.20;99.90
43842;DHT22;29495;49.970;20.842;2022-12-07T09:23:18;3.20;99.90
43842;DHT22;29495;49.970;20.842;2022-12-07T09:25:48;3.20;99.90
43842;DHT22;29495;49.970;20.842;2022-12-07T09:28:14;3.10;99.90
43842;DHT22;29495;49.970;20.842;2022-12-07T09:30:47;3.20;99.90
43842;DHT22;29495;49.970;20.842;2022-12-07T09:33:14;3.20;99.90
43842;DHT22;29495;49.970;20.842;2022-12-07T09:35:50;3.20;99.90
43842;DHT22;29495;49.970;20.842;2022-12-07T09:38:17;3.20;99.90
43842;DHT22;29495;49.970;20.842;2022-12-07T09:40:44;3.30;99.90
43842;DHT22;29495;49.970;20.842;2022-12-07T09:43:21;3.20;99.90
43842;DHT22;29495;49.970;20.842;2022-12-07T09:45:50;3.20;99.90
43842;DHT22;29495;49.970;20.842;2022-12-07T09:50:52;3.30;99.90
43842;DHT22;29495;49.970;20.842;2022-12-07T09:53:38;3.40;99.90
43842;DHT22;29495;49.970;20.842;2022-12-07T09:56:05;3.50;99.90
43842;DHT22;29495;49.970;20.842;2022-12-07T09:58:33;3.50;99.90
43842;DHT22;29495;49.970;20.842;2022-12-07T10:01:20;3.60;99.90
43842;DHT22;29495;49.970;20.842;2022-12-07T10:03:50;3.60;99.90
43842;DHT22;29495;49.970;20.842;2022-12-07T10:06:16;3.60;99.90
43842;DHT22;29495;49.970;20.842;2022-12-07T10:08:42;3.60;99.90
43842;DHT22;29495;49.970;20.842;2022-12-07T10:11:10;3.40;99.90
43842;DHT22;29495;49.970;20.842;2022-12-07T10:13:46;3.50;99.90
43842;DHT22;29495;49.970;20.842;2022-12-07T10:16:40;3.60;99.90
43842;DHT22;29495;49.970;20.842;2022-12-07T10:19:23;3.60;99.90
43842;DHT22;29495;49.970;20.842;2022-12-07T10:24:35;3.60;99.90
43842;DHT22;29495;49.970;20.842;2022-12-07T10:27:09;3.70;99.90
43842;DHT22;29495;49.970;20.842;2022-12-07T10:29:48;3.60;99.90
43842;DHT22;29495;49.970;20.842;2022-12-07T10:34:41;3.50;99.90
43842;DHT22;29495;49.970;20.842;2022-12-07T10:42:24;3.40;99.90
43842;DHT22;29495;49.970;20.842;2022-12-07T10:47:55;3.40;99.90
43842;DHT22;29495;49.970;20.842;2022-12-07T10:58:47;3.40;99.90
43842;DHT22;29495;49.970;20.842;2022-12-07T11:06:58;3.40;99.90
43842;DHT22;29495;49.970;20.842;2022-12-07T11:10:02;3.40;99.90
43842;DHT22;29495;49.970;20.842;2022-12-07T11:34:37;3.70;99.90
43842;DHT22;29495;49.970;20.842;2022-12-07T11:37:13;3.70;99.90
43842;DHT22;29495;49.970;20.842;2022-12-07T11:40:05;3.80;99.90
43842;DHT22;29495;49.970;20.842;2022-12-07T11:42:42;3.80;99.90
43842;DHT22;29495;49.970;20.842;2022-12-07T11:45:23;3.80;99.90
43842;DHT22;29495;49.970;20.842;2022-12-07T11:53:18;3.90;99.90
43842;DHT22;29495;49.970;20.842;2022-12-07T11:55:57;4.00;99.90
43842;DHT22;29495;49.970;20.842;2022-12-07T11:58:51;4.00;99.90
43842;DHT22;29495;49.970;20.842;2022-12-07T12:04:23;4.00;99.90
43842;DHT22;29495;49.970;20.842;2022-12-07T12:06:57;4.00;99.90
43842;DHT22;29495;49.970;20.842;2022-12-07T12:23:00;4.00;99.90
43842;DHT22;29495;49.970;20.842;2022-12-07T12:25:31;4.10;99.90
43842;DHT22;29495;49.970;20.842;2022-12-07T12:28:01;4.10;99.90
43842;DHT22;29495;49.970;20.842;2022-12-07T12:30:35;4.20;99.90
43842;DHT22;29495;49.970;20.842;2022-12-07T12:33:13;4.30;99.90
43842;DHT22;29495;49.970;20.842;2022-12-07T12:35:40;4.30;99.90
43842;DHT22;29495;49.970;20.842;2022-12-07T12:38:33;4.30;99.90
43842;DHT22;29495;49.970;20.842;2022-12-07T12:41:01;4.20;99.90
43842;DHT22;29495;49.970;20.842;2022-12-07T12:43:52;4.30;99.90
43842;DHT22;29495;49.970;20.842;2022-12-07T12:49:34;4.30;99.90
43842;DHT22;29495;49.970;20.842;2022-12-07T12:57:35;4.20;99.90
43842;DHT22;29495;49.970;20.842;2022-12-07T13:00:22;4.20;99.90
43842;DHT22;29495;49.970;20.842;2022-12-07T13:02:53;4.30;99.90
43842;DHT22;29495;49.970;20.842;2022-12-07T13:05:25;4.20;99.90
43842;DHT22;29495;49.970;20.842;2022-12-07T13:15:47;4.40;99.90
43842;DHT22;29495;49.970;20.842;2022-12-07T13:29:15;4.40;99.90
43842;DHT22;29495;49.970;20.842;2022-12-07T13:31:55;4.40;99.90
43842;DHT22;29495;49.970;20.842;2022-12-07T13:34:32;4.40;99.90
43842;DHT22;29495;49.970;20.842;2022-12-07T13:40:41;4.40;99.90
43842;DHT22;29495;49.970;20.842;2022-12-07T13:46:35;4.30;99.90
43842;DHT22;29495;49.970;20.842;2022-12-07T13:49:32;4.30;99.90
43842;DHT22;29495;49.970;20.842;2022-12-07T13:54:49;4.30;99.90
43842;DHT22;29495;49.970;20.842;2022-12-07T13:57:16;4.30;99.90
43842;DHT22;29495;49.970;20.842;2022-12-07T13:59:44;4.30;99.90
43842;DHT22;29495;49.970;20.842;2022-12-07T14:02:36;4.30;99.90
43842;DHT22;29495;49.970;20.842;2022-12-07T14:05:24;4.30;99.90
43842;DHT22;29495;49.970;20.842;2022-12-07T14:11:13;4.30;99.90
43842;DHT22;29495;49.970;20.842;2022-12-07T14:14:13;4.20;99.90
43842;DHT22;29495;49.970;20.842;2022-12-07T14:16:40;4.20;99.90
43842;DHT22;29495;49.970;20.842;2022-12-07T14:25:52;4.10;99.90
43842;DHT22;29495;49.970;20.842;2022-12-07T14:28:50;4.10;99.90
43842;DHT22;29495;49.970;20.842;2022-12-07T14:31:18;4.10;99.90
43842;DHT22;29495;49.970;20.842;2022-12-07T14:33:47;4.10;99.90
43842;DHT22;29495;49.970;20.842;2022-12-07T14:36:13;4.10;99.90
43842;DHT22;29495;49.970;20.842;2022-12-07T14:38:40;4.10;99.90
43842;DHT22;29495;49.970;20.842;2022-12-07T14:41:17;4.10;99.90
43842;DHT22;29495;49.970;20.842;2022-12-07T14:44:19;4.10;99.90
43842;DHT22;29495;49.970;20.842;2022-12-07T14:46:47;4.10;99.90
43842;DHT22;29495;49.970;20.842;2022-12-07T14:52:58;4.10;99.90
43842;DHT22;29495;49.970;20.842;2022-12-07T14:58:48;4.00;99.90
43842;DHT22;29495;49.970;20.842;2022-12-07T15:01:42;3.90;99.90
43842;DHT22;29495;49.970;20.842;2022-12-07T15:04:08;3.80;99.90
43842;DHT22;29495;49.970;20.842;2022-12-07T15:06:34;3.80;99.90
43842;DHT22;29495;49.970;20.842;2022-12-07T15:09:00;3.80;99.90
43842;DHT22;29495;49.970;20.842;2022-12-07T15:11:27;3.70;99.90
43842;DHT22;29495;49.970;20.842;2022-12-07T15:14:20;3.60;99.90
43842;DHT22;29495;49.970;20.842;2022-12-07T15:17:12;3.40;99.90
43842;DHT22;29495;49.970;20.842;2022-12-07T15:19:38;3.40;99.90
43842;DHT22;29495;49.970;20.842;2022-12-07T15:22:05;3.30;99.90
43842;DHT22;29495;49.970;20.842;2022-12-07T15:24:31;3.30;99.90
43842;DHT22;29495;49.970;20.842;2022-12-07T15:26:57;3.30;99.90
43842;DHT22;29495;49.970;20.842;2022-12-07T15:29:23;3.10;99.90
43842;DHT22;29495;49.970;20.842;2022-12-07T15:31:50;3.10;99.90
43842;DHT22;29495;49.970;20.842;2022-12-07T15:37:35;3.00;99.90
43842;DHT22;29495;49.970;20.842;2022-12-07T15:40:15;3.00;99.90
43842;DHT22;29495;49.970;20.842;2022-12-07T15:42:41;3.00;99.90
43842;DHT22;29495;49.970;20.842;2022-12-07T15:45:08;3.10;99.90
43842;DHT22;29495;49.970;20.842;2022-12-07T15:47:40;3.00;99.90
43842;DHT22;29495;49.970;20.842;2022-12-07T15:50:15;3.10;99.90
43842;DHT22;29495;49.970;20.842;2022-12-07T15:56:25;3.10;99.90
43842;DHT22;29495;49.970;20.842;2022-12-07T16:05:32;3.10;99.90
43842;DHT22;29495;49.970;20.842;2022-12-07T16:08:24;3.10;99.90
43842;DHT22;29495;49.970;20.842;2022-12-07T16:11:10;3.10;99.90
43842;DHT22;29495;49.970;20.842;2022-12-07T16:16:53;3.10;99.90
43842;DHT22;29495;49.970;20.842;2022-12-07T16:19:43;3.10;99.90
43842;DHT22;29495;49.970;20.842;2022-12-07T16:22:09;3.00;99.90
43842;DHT22;29495;49.970;20.842;2022-12-07T16:24:35;3.00;99.90
43842;DHT22;29495;49.970;20.842;2022-12-07T16:27:01;3.00;99.90
43842;DHT22;29495;49.970;20.842;2022-12-07T16:29:27;3.00;99.90
43842;DHT22;29495;49.970;20.842;2022-12-07T16:32:20;3.10;99.90
43842;DHT22;29495;49.970;20.842;2022-12-07T16:34:46;3.00;99.90
43842;DHT22;29495;49.970;20.842;2022-12-07T16:40:23;3.00;99.90
43842;DHT22;29495;49.970;20.842;2022-12-07T16:42:49;3.00;99.90
43842;DHT22;29495;49.970;20.842;2022-12-07T16:45:25;3.10;99.90
43842;DHT22;29495;49.970;20.842;2022-12-07T16:47:51;3.10;99.90
43842;DHT22;29495;49.970;20.842;2022-12-07T16:50:17;3.10;99.90
43842;DHT22;29495;49.970;20.842;2022-12-07T16:53:13;3.10;99.90
43842;DHT22;29495;49.970;20.842;2022-12-07T16:56:09;3.00;99.90
43842;DHT22;29495;49.970;20.842;2022-12-07T16:58:35;3.10;99.90
43842;DHT22;29495;49.970;20.842;2022-12-07T17:01:21;3.10;99.90
43842;DHT22;29495;49.970;20.842;2022-12-07T17:03:48;3.10;99.90
43842;DHT22;29495;49.970;20.842;2022-12-07T17:06:17;3.10;99.90
43842;DHT22;29495;49.970;20.842;2022-12-07T17:08:44;3.10;99.90
43842;DHT22;29495;49.970;20.842;2022-12-07T17:11:26;3.10;99.90
43842;DHT22;29495;49.970;20.842;2022-12-07T17:14:18;3.10;99.90
43842;DHT22;29495;49.970;20.842;2022-12-07T17:17:26;3.10;99.90
43842;DHT22;29495;49.970;20.842;2022-12-07T17:23:15;3.10;99.90
43842;DHT22;29495;49.970;20.842;2022-12-07T17:29:22;3.10;99.90
43842;DHT22;29495;49.970;20.842;2022-12-07T17:35:10;3.10;99.90
43842;DHT22;29495;49.970;20.842;2022-12-07T17:38:01;3.10;99.90
43842;DHT22;29495;49.970;20.842;2022-12-07T17:40:27;3.20;99.90
43842;DHT22;29495;49.970;20.842;2022-12-07T17:42:54;3.10;99.90
43842;DHT22;29495;49.970;20.842;2022-12-07T17:45:20;3.10;99.90
43842;DHT22;29495;49.970;20.842;2022-12-07T17:50:50;3.10;99.90
43842;DHT22;29495;49.970;20.842;2022-12-07T17:53:34;3.10;99.90
43842;DHT22;29495;49.970;20.842;2022-12-07T17:56:03;3.10;99.90
43842;DHT22;29495;49.970;20.842;2022-12-07T17:58:29;3.10;99.90
43842;DHT22;29495;49.970;20.842;2022-12-07T18:00:56;3.00;99.90
43842;DHT22;29495;49.970;20.842;2022-12-07T18:03:27;2.90;99.90
43842;DHT22;29495;49.970;20.842;2022-12-07T18:06:48;3.00;99.90
43842;DHT22;29495;49.970;20.842;2022-12-07T18:09:14;3.00;99.90
43842;DHT22;29495;49.970;20.842;2022-12-07T18:11:40;2.90;99.90
43842;DHT22;29495;49.970;20.842;2022-12-07T18:14:06;2.90;99.90
43842;DHT22;29495;49.970;20.842;2022-12-07T18:16:32;2.80;99.90
43842;DHT22;29495;49.970;20.842;2022-12-07T18:19:08;2.80;99.90
43842;DHT22;29495;49.970;20.842;2022-12-07T18:21:39;2.80;99.90
43842;DHT22;29495;49.970;20.842;2022-12-07T18:24:05;2.80;99.90
43842;DHT22;29495;49.970;20.842;2022-12-07T18:26:33;2.80;99.90
43842;DHT22;29495;49.970;20.842;2022-12-07T18:29:15;2.80;99.90
43842;DHT22;29495;49.970;20.842;2022-12-07T18:31:42;2.80;99.90
43842;DHT22;29495;49.970;20.842;2022-12-07T18:34:11;2.80;99.90
43842;DHT22;29495;49.970;20.842;2022-12-07T18:36:49;2.80;99.90
43842;DHT22;29495;49.970;20.842;2022-12-07T18:39:17;2.80;99.90
43842;DHT22;29495;49.970;20.842;2022-12-07T18:41:44;2.70;99.90
43842;DHT22;29495;49.970;20.842;2022-12-07T18:44:23;2.60;99.90
43842;DHT22;29495;49.970;20.842;2022-12-07T18:47:06;2.60;99.90
43842;DHT22;29495;49.970;20.842;2022-12-07T18:49:53;2.50;99.90
43842;DHT22;29495;49.970;20.842;2022-12-07T18:52:34;2.60;99.90
43842;DHT22;29495;49.970;20.842;2022-12-07T18:55:30;2.50;99.90
43842;DHT22;29495;49.970;20.842;2022-12-07T18:57:57;2.50;99.90
43842;DHT22;29495;49.970;20.842;2022-12-07T19:00:26;2.50;99.90
43842;DHT22;29495;49.970;20.842;2022-12-07T19:03:12;2.40;99.90
43842;DHT22;29495;49.970;20.842;2022-12-07T19:05:54;2.40;99.90
43842;DHT22;29495;49.970;20.842;2022-12-07T19:08:26;2.30;99.90
43842;DHT22;29495;49.970;20.842;2022-12-07T19:10:55;2.30;99.90
43842;DHT22;29495;49.970;20.842;2022-12-07T19:13:42;2.30;99.90
43842;DHT22;29495;49.970;20.842;2022-12-07T19:16:11;2.30;99.90
43842;DHT22;29495;49.970;20.842;2022-12-07T19:19:03;2.30;99.90
43842;DHT22;29495;49.970;20.842;2022-12-07T19:21:29;2.20;99.90
43842;DHT22;29495;49.970;20.842;2022-12-07T19:24:21;2.20;99.90
43842;DHT22;29495;49.970;20.842;2022-12-07T19:26:48;2.30;99.90
43842;DHT22;29495;49.970;20.842;2022-12-07T19:29:15;2.30;99.90
43842;DHT22;29495;49.970;20.842;2022-12-07T19:31:42;2.30;99.90
43842;DHT22;29495;49.970;20.842;2022-12-07T19:34:45;2.30;99.90
43842;DHT22;29495;49.970;20.842;2022-12-07T19:37:32;2.40;99.90
43842;DHT22;29495;49.970;20.842;2022-12-07T19:40:09;2.40;99.90
43842;DHT22;29495;49.970;20.842;2022-12-07T19:42:35;2.40;99.90
43842;DHT22;29495;49.970;20.842;2022-12-07T19:45:01;2.40;99.90
43842;DHT22;29495;49.970;20.842;2022-12-07T19:47:32;2.40;99.90